Time;durP1;ratioP1;P1;durP2;ratioP2;P2;SDS_P1;SDS_P2;PMS_P1;PMS_P2;Temp;Humidity;BMP_temperature;BMP_pressure;BME280_temperature;BME280_humidity;BME280_pressure;Samples;Min_cycle;Max_cycle;Signal;HPM_P1;HPM_P2
2021/11/19 00:02:25;;;;;;;;;;;;;;;;;;2216234;66;1199;-75
2021/11/19 00:04:58;;;;;;;;;;;;;;;;;;2215650;66;1297;-75
2021/11/19 00:07:32;;;;;;;;;;;;;;;;;;2216928;66;1975;-75
2021/11/19 00:10:09;;;;;;;;;;;;;;;;;;2216020;66;1307;-75
2021/11/19 00:12:43;;;;;;;;;;;;;;;;;;2215274;66;1503;-75
2021/11/19 00:15:17;;;;;;;;;;;;;;;;;;2216154;58;1310;-75
2021/11/19 00:17:50;;;;;;;;;;;;;;;;;;2216452;59;1218;-75
2021/11/19 00:20:28;;;;;;;;;;;;;;;;;;2216229;66;1214;-75
2021/11/19 00:23:02;;;;;;;;;;;;;;;;;;2216738;58;1678;-75
2021/11/19 00:25:38;;;;;;;;;;;;;;;;;;2215066;58;1933;-75
2021/11/19 00:28:12;;;;;;;;;;;;;;;;;;2216029;66;1071;-75
2021/11/19 00:30:46;;;;;;;;;;;;;;;;;;2216818;66;1205;-75
2021/11/19 00:33:20;;;;;;;;;;;;;;;;;;2216455;66;1189;-75
2021/11/19 00:36:00;;;;;;;;;;;;;;;;;;2214717;66;1251;-75
2021/11/19 00:38:40;;;;;;;;;;;;;;;;;;2216018;59;1259;-74
2021/11/19 00:41:16;;;;;;;;;;;;;;;;;;2216371;66;1207;-75
2021/11/19 00:43:50;;;;;;;;;;;;;;;;;;2216617;59;1294;-75
2021/11/19 00:46:23;;;;;;;;;;;;;;;;;;2214491;66;1986;-75
2021/11/19 00:48:57;;;;;;;;;;;;;;;;;;2215506;58;2397;-75
2021/11/19 00:51:33;;;;;;;;;;;;;;;;;;2216187;66;1190;-75
2021/11/19 00:54:15;;;;;;;;;;;;;;;;;;2216471;59;1214;-75
2021/11/19 00:56:53;;;;;;;;;;;;;;;;;;2216777;66;1226;-75
2021/11/19 00:59:27;;;;;;;;;;;;;;;;;;2217013;66;1298;-75
2021/11/19 01:02:02;;;;;;;;;;;;;;;;;;2216369;66;1105;-75
2021/11/19 01:04:41;;;;;;;;;;;;;;;;;;2215354;59;1206;-74
2021/11/19 01:07:15;;;;;;;;;;;;;;;;;;2216079;66;1928;-75
2021/11/19 01:09:51;;;;;;;;;;;;;;;;;;2217516;66;1187;-75
2021/11/19 01:12:31;;;;;;;;;;;;;;;;;;2216050;66;1243;-75
2021/11/19 01:15:07;;;;;;;;;;;;;;;;;;2215447;59;1242;-75
2021/11/19 01:17:42;;;;;;;;;;;;;;;;;;2216352;66;1204;-75
2021/11/19 01:20:21;;;;;;;;;;;;;;;;;;2215841;66;1124;-74
2021/11/19 01:22:56;;;;;;;;;;;;;;;;;;2216038;59;1460;-75
2021/11/19 01:25:39;;;;;;;;;;;;;;;;;;2216869;58;1252;-75
2021/11/19 01:28:24;;;;;;;;;;;;;;;;;;2214969;59;1991;-75
2021/11/19 01:31:33;;;;;;;;;;;;;;;;;;2216057;59;1261;-75
2021/11/19 01:34:07;;;;;;;;;;;;;;;;;;2215100;66;1235;-75
2021/11/19 01:36:45;;;;;;;;;;;;;;;;;;2216268;66;1238;-75
2021/11/19 01:39:20;;;;;;;;;;;;;;;;;;2215621;66;1180;-75
2021/11/19 01:41:55;;;;;;;;;;;;;;;;;;2216252;66;1231;-75
2021/11/19 01:44:33;;;;;;;;;;;;;;;;;;2216291;66;1302;-75
2021/11/19 01:47:08;;;;;;;;;;;;;;;;;;2216504;66;1983;-75
2021/11/19 01:49:42;;;;;;;;;;;;;;;;;;2216532;66;1252;-75
2021/11/19 01:55:12;;;;;;;;;;;;;;;;;;2215586;59;1282;-75
2021/11/19 02:00:47;;;;;;;;;;;;;;;;;;2215316;59;1187;-75
2021/11/19 02:03:22;;;;;;;;;;;;;;;;;;2216007;59;1263;-75
2021/11/19 02:06:08;;;;;;;;;;;;;;;;;;2214678;66;1249;-75
2021/11/19 02:08:43;;;;;;;;;;;;;;;;;;2216020;66;1172;-75
2021/11/19 02:11:20;;;;;;;;;;;;;;;;;;2214726;66;1256;-75
2021/11/19 02:13:57;;;;;;;;;;;;;;;;;;2215790;66;1211;-75
2021/11/19 02:16:35;;;;;;;;;;;;;;;;;;2214680;66;1275;-75
2021/11/19 02:19:20;;;;;;;;;;;;;;;;;;2215822;59;1140;-74
2021/11/19 02:21:55;;;;;;;;;;;;;;;;;;2215942;66;1263;-75
2021/11/19 02:27:19;;;;;;;;;;;;;;;;;;2214479;59;1962;-71
2021/11/19 02:29:55;;;;;;;;;;;;;;;;;;2213861;59;1178;-71
2021/11/19 02:32:33;;;;;;;;;;;;;;;;;;2215817;66;1330;-71
2021/11/19 02:35:07;;;;;;;;;;;;;;;;;;2215536;59;1194;-71
2021/11/19 02:37:42;;;;;;;;;;;;;;;;;;2212761;67;1208;-71
2021/11/19 02:40:17;;;;;;;;;;;;;;;;;;2213478;66;1256;-71
2021/11/19 02:42:52;;;;;;;;;;;;;;;;;;2215536;59;1214;-71
2021/11/19 02:45:28;;;;;;;;;;;;;;;;;;2209313;66;1980;-71
2021/11/19 02:48:04;;;;;;;;;;;;;;;;;;2213886;66;1984;-71
2021/11/19 02:50:38;;;;;;;;;;;;;;;;;;2214000;66;1172;-71
2021/11/19 02:53:12;;;;;;;;;;;;;;;;;;2213935;66;1208;-71
2021/11/19 02:55:47;;;;;;;;;;;;;;;;;;2213651;59;1195;-71
2021/11/19 02:58:21;;;;;;;;;;;;;;;;;;2213870;66;1108;-71
2021/11/19 03:00:59;;;;;;;;;;;;;;;;;;2214355;59;1440;-71
2021/11/19 03:03:35;;;;;;;;;;;;;;;;;;2212691;67;1184;-71
2021/11/19 03:06:08;;;;;;;;;;;;;;;;;;2213848;66;1130;-71
2021/11/19 03:08:42;;;;;;;;;;;;;;;;;;2213257;67;1933;-71
2021/11/19 03:11:17;;;;;;;;;;;;;;;;;;2213796;66;1304;-71
2021/11/19 03:13:50;;;;;;;;;;;;;;;;;;2214320;67;1191;-71
2021/11/19 03:16:26;;;;;;;;;;;;;;;;;;2213926;59;1377;-71
2021/11/19 03:19:02;;;;;;;;;;;;;;;;;;2214048;67;1118;-71
2021/11/19 03:21:35;;;;;;;;;;;;;;;;;;2213640;66;1178;-71
2021/11/19 03:24:09;;;;;;;;;;;;;;;;;;2213092;59;1388;-71
2021/11/19 03:26:43;;;;;;;;;;;;;;;;;;2212714;66;1977;-71
2021/11/19 03:29:16;;;;;;;;;;;;;;;;;;2212515;59;1126;-71
2021/11/19 03:31:50;;;;;;;;;;;;;;;;;;2214395;66;1354;-71
2021/11/19 03:34:27;;;;;;;;;;;;;;;;;;2212713;67;1169;-71
2021/11/19 03:37:00;;;;;;;;;;;;;;;;;;2215133;59;1245;-71
2021/11/19 03:39:33;;;;;;;;;;;;;;;;;;2213357;59;1098;-71
2021/11/19 03:42:09;;;;;;;;;;;;;;;;;;2214638;66;1186;-71
2021/11/19 03:44:46;;;;;;;;;;;;;;;;;;2213212;67;1219;-72
2021/11/19 03:47:21;;;;;;;;;;;;;;;;;;2214864;66;1989;-71
2021/11/19 03:49:57;;;;;;;;;;;;;;;;;;2213378;67;1245;-71
2021/11/19 03:52:34;;;;;;;;;;;;;;;;;;2214502;66;1192;-71
2021/11/19 03:55:10;;;;;;;;;;;;;;;;;;2213133;67;1167;-71
2021/11/19 03:57:45;;;;;;;;;;;;;;;;;;2214385;66;1226;-71
2021/11/19 04:00:20;;;;;;;;;;;;;;;;;;2212114;67;1294;-71
2021/11/19 04:02:54;;;;;;;;;;;;;;;;;;2211235;67;1314;-71
2021/11/19 04:05:31;;;;;;;;;;;;;;;;;;2212409;67;1250;-71
2021/11/19 04:08:05;;;;;;;;;;;;;;;;;;2214544;66;1929;-71
2021/11/19 04:10:39;;;;;;;;;;;;;;;;;;2212597;67;1086;-72
2021/11/19 04:13:13;;;;;;;;;;;;;;;;;;2214011;59;1188;-71
2021/11/19 04:15:47;;;;;;;;;;;;;;;;;;2212044;67;1149;-71
2021/11/19 04:18:21;;;;;;;;;;;;;;;;;;2214501;66;1167;-71
2021/11/19 04:20:57;;;;;;;;;;;;;;;;;;2212327;67;1231;-71
2021/11/19 04:23:31;;;;;;;;;;;;;;;;;;2212989;59;1439;-71
2021/11/19 04:26:06;;;;;;;;;;;;;;;;;;2212112;59;1217;-71
2021/11/19 04:28:39;;;;;;;;;;;;;;;;;;2212810;66;2050;-71
2021/11/19 04:31:13;;;;;;;;;;;;;;;;;;2213220;67;1196;-71
2021/11/19 04:33:46;;;;;;;;;;;;;;;;;;2212856;66;1199;-71
2021/11/19 04:36:22;;;;;;;;;;;;;;;;;;2212555;67;1248;-71
2021/11/19 04:38:56;;;;;;;;;;;;;;;;;;2214902;66;1240;-71
2021/11/19 04:41:29;;;;;;;;;;;;;;;;;;2212937;67;1188;-72
2021/11/19 04:44:03;;;;;;;;;;;;;;;;;;2212481;66;1271;-71
2021/11/19 04:46:36;;;;;;;;;;;;;;;;;;2213105;67;1267;-71
2021/11/19 04:49:10;;;;;;;;;;;;;;;;;;2215976;66;1990;-71
2021/11/19 04:51:47;;;;;;;;;;;;;;;;;;2212257;59;1187;-71
2021/11/19 04:54:22;;;;;;;;;;;;;;;;;;2215065;59;1258;-71
2021/11/19 04:56:56;;;;;;;;;;;;;;;;;;2212280;67;1249;-71
2021/11/19 04:59:30;;;;;;;;;;;;;;;;;;2215054;59;1158;-71
2021/11/19 05:02:07;;;;;;;;;;;;;;;;;;2212209;67;1208;-71
2021/11/19 05:04:41;;;;;;;;;;;;;;;;;;2212061;67;1431;-71
2021/11/19 05:07:17;;;;;;;;;;;;;;;;;;2213205;67;1979;-72
2021/11/19 05:09:50;;;;;;;;;;;;;;;;;;2214438;59;1195;-71
2021/11/19 05:12:24;;;;;;;;;;;;;;;;;;2213963;67;1281;-71
2021/11/19 05:14:58;;;;;;;;;;;;;;;;;;2212980;66;1211;-72
2021/11/19 05:17:32;;;;;;;;;;;;;;;;;;2213024;67;1123;-71
2021/11/19 05:20:06;;;;;;;;;;;;;;;;;;2214351;66;1320;-71
2021/11/19 05:22:42;;;;;;;;;;;;;;;;;;2212950;59;1453;-71
2021/11/19 05:25:17;;;;;;;;;;;;;;;;;;2213673;59;1270;-71
2021/11/19 05:27:51;;;;;;;;;;;;;;;;;;2211446;66;1925;-71
2021/11/19 05:30:24;;;;;;;;;;;;;;;;;;2212382;66;1255;-72
2021/11/19 05:32:57;;;;;;;;;;;;;;;;;;2212938;67;1191;-71
2021/11/19 05:35:31;;;;;;;;;;;;;;;;;;2213136;59;1296;-71
2021/11/19 05:38:07;;;;;;;;;;;;;;;;;;2212869;59;1252;-71
2021/11/19 05:40:40;;;;;;;;;;;;;;;;;;2208927;67;1414;-71
2021/11/19 05:43:14;;;;;;;;;;;;;;;;;;2212434;66;1210;-71
2021/11/19 05:45:47;;;;;;;;;;;;;;;;;;2212566;59;2674;-71
2021/11/19 05:48:20;;;;;;;;;;;;;;;;;;2213175;59;1940;-71
2021/11/19 05:50:54;;;;;;;;;;;;;;;;;;2212823;66;1249;-71
2021/11/19 05:53:30;;;;;;;;;;;;;;;;;;2213039;66;1089;-71
2021/11/19 05:56:03;;;;;;;;;;;;;;;;;;2212860;67;1286;-71
2021/11/19 05:58:37;;;;;;;;;;;;;;;;;;2213316;66;1297;-71
2021/11/19 06:01:11;;;;;;;;;;;;;;;;;;2214415;66;1291;-71
2021/11/19 06:07:02;;;;;;;;;;;;;;;;;;2209372;67;1246;-72
2021/11/19 06:09:40;;;;;;;;;;;;;;;;;;2214727;66;1932;-71
2021/11/19 06:12:15;;;;;;;;;;;;;;;;;;2214186;67;1197;-71
2021/11/19 06:14:50;;;;;;;;;;;;;;;;;;2214624;66;1205;-72
2021/11/19 06:17:25;;;;;;;;;;;;;;;;;;2213838;67;1136;-71
2021/11/19 06:20:01;;;;;;;;;;;;;;;;;;2214769;66;1301;-71
2021/11/19 06:22:36;;;;;;;;;;;;;;;;;;2213081;59;1479;-71
2021/11/19 06:25:13;;;;;;;;;;;;;;;;;;2214333;59;1776;-71
2021/11/19 06:27:47;;;;;;;;;;;;;;;;;;2213487;59;1969;-72
2021/11/19 06:30:22;;;;;;;;;;;;;;;;;;2213132;66;1194;-71
2021/11/19 06:32:56;;;;;;;;;;;;;;;;;;2213365;67;1145;-71
2021/11/19 06:35:29;;;;;;;;;;;;;;;;;;2214196;66;1226;-71
2021/11/19 06:38:03;;;;;;;;;;;;;;;;;;2213522;66;1089;-71
2021/11/19 06:40:39;;;;;;;;;;;;;;;;;;2214661;66;1349;-71
2021/11/19 06:43:12;;;;;;;;;;;;;;;;;;2213006;67;1120;-71
2021/11/19 06:45:46;;;;;;;;;;;;;;;;;;2211382;67;1248;-71
2021/11/19 06:48:19;;;;;;;;;;;;;;;;;;2212986;67;1970;-71
2021/11/19 06:50:52;;;;;;;;;;;;;;;;;;2214749;66;1123;-71
2021/11/19 06:53:27;;;;;;;;;;;;;;;;;;2213237;67;1233;-71
2021/11/19 06:56:03;;;;;;;;;;;;;;;;;;2214324;66;1285;-71
2021/11/19 06:58:37;;;;;;;;;;;;;;;;;;2213067;67;1257;-71
2021/11/19 07:01:11;;;;;;;;;;;;;;;;;;2214271;66;1232;-72
2021/11/19 07:03:44;;;;;;;;;;;;;;;;;;2212898;67;1248;-71
2021/11/19 07:06:18;;;;;;;;;;;;;;;;;;2213920;59;1329;-71
2021/11/19 07:08:51;;;;;;;;;;;;;;;;;;2213032;67;1969;-71
2021/11/19 07:11:28;;;;;;;;;;;;;;;;;;2216203;66;1231;-71
2021/11/19 07:14:01;;;;;;;;;;;;;;;;;;2214427;67;1196;-71
2021/11/19 07:16:35;;;;;;;;;;;;;;;;;;2216273;66;1202;-71
2021/11/19 07:19:09;;;;;;;;;;;;;;;;;;2212804;67;1165;-71
2021/11/19 07:21:42;;;;;;;;;;;;;;;;;;2215367;66;1190;-71
2021/11/19 07:24:16;;;;;;;;;;;;;;;;;;2212654;59;1733;-71
2021/11/19 07:26:52;;;;;;;;;;;;;;;;;;2215319;59;1265;-71
2021/11/19 07:29:26;;;;;;;;;;;;;;;;;;2212425;67;1979;-71
2021/11/19 07:31:59;;;;;;;;;;;;;;;;;;2214845;66;1259;-71
2021/11/19 07:34:33;;;;;;;;;;;;;;;;;;2212623;67;1234;-71
2021/11/19 07:37:07;;;;;;;;;;;;;;;;;;2214807;66;1299;-71
2021/11/19 07:39:40;;;;;;;;;;;;;;;;;;2213348;67;1181;-71
2021/11/19 07:42:16;;;;;;;;;;;;;;;;;;2214465;66;1208;-71
2021/11/19 07:44:50;;;;;;;;;;;;;;;;;;2212709;67;1203;-71
2021/11/19 07:47:23;;;;;;;;;;;;;;;;;;2214815;66;1194;-72
2021/11/19 07:49:56;;;;;;;;;;;;;;;;;;2212896;67;1978;-71
2021/11/19 07:52:30;;;;;;;;;;;;;;;;;;2214593;66;1273;-71
2021/11/19 07:55:03;;;;;;;;;;;;;;;;;;2212964;67;1180;-71
2021/11/19 07:57:39;;;;;;;;;;;;;;;;;;2214095;59;1182;-71
2021/11/19 08:00:15;;;;;;;;;;;;;;;;;;2213247;67;1245;-72
2021/11/19 08:02:48;;;;;;;;;;;;;;;;;;2213622;66;1285;-71
2021/11/19 08:05:22;;;;;;;;;;;;;;;;;;2212979;66;1383;-71
2021/11/19 08:07:55;;;;;;;;;;;;;;;;;;2213382;66;1236;-71
2021/11/19 08:10:29;;;;;;;;;;;;;;;;;;2213401;60;1978;-71
2021/11/19 08:13:05;;;;;;;;;;;;;;;;;;2214262;66;1255;-72
2021/11/19 08:15:39;;;;;;;;;;;;;;;;;;2214164;60;1172;-72
2021/11/19 08:18:15;;;;;;;;;;;;;;;;;;2213427;66;1083;-71
2021/11/19 08:20:50;;;;;;;;;;;;;;;;;;2213193;66;1236;-71
2021/11/19 08:23:24;;;;;;;;;;;;;;;;;;2215253;66;1446;-71
2021/11/19 08:25:57;;;;;;;;;;;;;;;;;;2211024;59;3604;-71
2021/11/19 08:28:34;;;;;;;;;;;;;;;;;;2205111;59;1934;-71
2021/11/19 08:31:08;;;;;;;;;;;;;;;;;;2200317;59;1417;-71
2021/11/19 08:33:42;;;;;;;;;;;;;;;;;;2202789;59;1262;-71
2021/11/19 08:36:15;;;;;;;;;;;;;;;;;;2200861;67;1380;-71
2021/11/19 08:38:49;;;;;;;;;;;;;;;;;;2200082;59;1196;-71
2021/11/19 08:41:22;;;;;;;;;;;;;;;;;;2198307;67;1228;-71
2021/11/19 08:43:59;;;;;;;;;;;;;;;;;;2199837;59;1233;-71
2021/11/19 08:46:33;;;;;;;;;;;;;;;;;;2199749;60;1211;-71
2021/11/19 08:49:08;;;;;;;;;;;;;;;;;;2199468;59;1924;-71
2021/11/19 08:51:42;;;;;;;;;;;;;;;;;;2199731;67;1251;-71
2021/11/19 08:54:16;;;;;;;;;;;;;;;;;;2199261;67;1083;-71
2021/11/19 08:56:51;;;;;;;;;;;;;;;;;;2199982;67;1226;-71
2021/11/19 08:59:28;;;;;;;;;;;;;;;;;;2197729;59;1260;-71
2021/11/19 09:02:02;;;;;;;;;;;;;;;;;;2199878;66;1145;-71
2021/11/19 09:04:35;;;;;;;;;;;;;;;;;;2199221;67;1240;-71
2021/11/19 09:07:08;;;;;;;;;;;;;;;;;;2199484;67;1258;-71
2021/11/19 09:09:42;;;;;;;;;;;;;;;;;;2199314;59;1935;-71
2021/11/19 09:12:17;;;;;;;;;;;;;;;;;;2203634;66;1085;-70
2021/11/19 09:14:53;;;;;;;;;;;;;;;;;;2210292;66;1267;-71
2021/11/19 09:17:41;;;;;;;;;;;;;;;;;;2198083;59;1124;-71
2021/11/19 09:20:16;;;;;;;;;;;;;;;;;;2199203;67;1203;-71
2021/11/19 09:22:52;;;;;;;;;;;;;;;;;;2199740;59;1611;-71
2021/11/19 09:25:25;;;;;;;;;;;;;;;;;;2199082;59;1197;-71
2021/11/19 09:28:01;;;;;;;;;;;;;;;;;;2199127;67;1092;-71
2021/11/19 09:30:39;;;;;;;;;;;;;;;;;;2198929;67;1936;-71
2021/11/19 09:33:13;;;;;;;;;;;;;;;;;;2199121;59;1272;-71
2021/11/19 09:35:46;;;;;;;;;;;;;;;;;;2198893;67;1172;-71
2021/11/19 09:38:21;;;;;;;;;;;;;;;;;;2200390;67;1126;-71
2021/11/19 09:40:57;;;;;;;;;;;;;;;;;;2199285;59;1267;-71
2021/11/19 09:43:34;;;;;;;;;;;;;;;;;;2200441;59;1221;-71
2021/11/19 09:46:26;;;;;;;;;;;;;;;;;;2198983;67;1217;-71
2021/11/19 09:49:29;;;;;;;;;;;;;;;;;;2200236;67;1996;-71
2021/11/19 09:52:29;;;;;;;;;;;;;;;;;;2205408;67;1268;-71
2021/11/19 09:55:19;;;;;;;;;;;;;;;;;;2198278;67;1985;-71
2021/11/19 09:58:10;;;;;;;;;;;;;;;;;;2198957;67;1106;-71
2021/11/19 10:00:51;;;;;;;;;;;;;;;;;;2196600;59;2229;-71
2021/11/19 10:03:32;;;;;;;;;;;;;;;;;;2199927;67;1192;-71
2021/11/19 10:06:11;;;;;;;;;;;;;;;;;;2198992;67;1176;-71
2021/11/19 10:08:49;;;;;;;;;;;;;;;;;;2200072;67;1259;-71
2021/11/19 10:11:27;;;;;;;;;;;;;;;;;;2199638;59;1177;-71
2021/11/19 10:14:07;;;;;;;;;;;;;;;;;;2202851;66;1147;-71
2021/11/19 10:16:48;;;;;;;;;;;;;;;;;;2197767;67;1194;-71
2021/11/19 10:19:24;;;;;;;;;;;;;;;;;;2199520;67;1259;-71
2021/11/19 10:22:13;;;;;;;;;;;;;;;;;;2198870;67;1166;-71
2021/11/19 10:24:48;;;;;;;;;;;;;;;;;;2198497;67;1173;-71
2021/11/19 10:27:26;;;;;;;;;;;;;;;;;;2198743;59;1304;-71
2021/11/19 10:30:01;;;;;;;;;;;;;;;;;;2198534;67;1926;-71
2021/11/19 10:32:35;;;;;;;;;;;;;;;;;;2198922;67;1161;-71
2021/11/19 10:35:15;;;;;;;;;;;;;;;;;;2198867;67;1196;-71
2021/11/19 10:38:09;;;;;;;;;;;;;;;;;;2197726;67;1260;-71
2021/11/19 10:41:04;;;;;;;;;;;;;;;;;;2197560;59;1173;-72
2021/11/19 10:44:07;;;;;;;;;;;;;;;;;;2199037;67;1227;-71
2021/11/19 10:47:10;;;;;;;;;;;;;;;;;;2206300;67;1147;-71
2021/11/19 10:49:57;;;;;;;;;;;;;;;;;;2200506;59;1934;-71
2021/11/19 10:52:44;;;;;;;;;;;;;;;;;;2199283;67;1325;-71
2021/11/19 10:55:33;;;;;;;;;;;;;;;;;;2200509;67;1268;-71
2021/11/19 10:58:25;;;;;;;;;;;;;;;;;;2199811;67;1292;-71
2021/11/19 11:01:09;;;;;;;;;;;;;;;;;;2198591;67;1271;-71
2021/11/19 11:04:01;;;;;;;;;;;;;;;;;;2199368;67;1984;-72
2021/11/19 11:06:45;;;;;;;;;;;;;;;;;;2199900;67;1221;-71
2021/11/19 11:09:25;;;;;;;;;;;;;;;;;;2200593;67;1979;-71
2021/11/19 11:12:16;;;;;;;;;;;;;;;;;;2201620;59;1211;-71
2021/11/19 11:15:02;;;;;;;;;;;;;;;;;;2208526;60;1835;-70
2021/11/19 11:17:37;;;;;;;;;;;;;;;;;;2199773;67;1234;-71
2021/11/19 11:20:23;;;;;;;;;;;;;;;;;;2200099;67;1105;-71
2021/11/19 11:22:57;;;;;;;;;;;;;;;;;;2197663;58;3142;-71
2021/11/19 11:25:32;;;;;;;;;;;;;;;;;;2198817;59;1274;-71
2021/11/19 11:28:10;;;;;;;;;;;;;;;;;;2199407;67;1275;-71
2021/11/19 11:30:54;;;;;;;;;;;;;;;;;;2199204;67;2085;-71
2021/11/19 11:33:29;;;;;;;;;;;;;;;;;;2199535;66;1176;-71
2021/11/19 11:36:12;;;;;;;;;;;;;;;;;;2199717;67;1144;-71
2021/11/19 11:38:50;;;;;;;;;;;;;;;;;;2199694;67;1249;-71
2021/11/19 11:41:26;;;;;;;;;;;;;;;;;;2199951;67;1209;-71
2021/11/19 11:44:14;;;;;;;;;;;;;;;;;;2199540;67;1258;-71
2021/11/19 11:47:05;;;;;;;;;;;;;;;;;;2199402;67;1227;-71
2021/11/19 11:49:45;;;;;;;;;;;;;;;;;;2199750;59;1938;-71
2021/11/19 11:52:30;;;;;;;;;;;;;;;;;;2199284;59;1267;-71
2021/11/19 11:55:16;;;;;;;;;;;;;;;;;;2197981;59;1232;-71
2021/11/19 11:58:05;;;;;;;;;;;;;;;;;;2199378;67;1138;-71
2021/11/19 12:00:42;;;;;;;;;;;;;;;;;;2200772;67;1246;-71
2021/11/19 12:03:23;;;;;;;;;;;;;;;;;;2199401;67;1114;-71
2021/11/19 12:05:58;;;;;;;;;;;;;;;;;;2200451;59;1247;-71
2021/11/19 12:08:48;;;;;;;;;;;;;;;;;;2199400;67;1208;-71
2021/11/19 12:11:34;;;;;;;;;;;;;;;;;;2201016;59;1981;-71
2021/11/19 12:14:18;;;;;;;;;;;;;;;;;;2207486;66;1110;-71
2021/11/19 12:16:59;;;;;;;;;;;;;;;;;;2201046;59;1206;-71
2021/11/19 12:19:37;;;;;;;;;;;;;;;;;;2199543;59;1228;-71
2021/11/19 12:22:15;;;;;;;;;;;;;;;;;;2200380;59;1456;-71
2021/11/19 12:24:56;;;;;;;;;;;;;;;;;;2199356;67;1141;-71
2021/11/19 12:27:37;;;;;;;;;;;;;;;;;;2199244;59;1211;-71
2021/11/19 12:30:20;;;;;;;;;;;;;;;;;;2199058;59;1932;-72
2021/11/19 12:32:54;;;;;;;;;;;;;;;;;;2199488;67;1168;-71
2021/11/19 12:35:29;;;;;;;;;;;;;;;;;;2199704;66;1204;-71
2021/11/19 12:38:05;;;;;;;;;;;;;;;;;;2197771;67;1256;-71
2021/11/19 12:40:44;;;;;;;;;;;;;;;;;;2199939;59;1375;-71
2021/11/19 12:43:26;;;;;;;;;;;;;;;;;;2199257;67;1195;-71
2021/11/19 12:46:05;;;;;;;;;;;;;;;;;;2199664;67;1252;-71
2021/11/19 12:48:56;;;;;;;;;;;;;;;;;;2199596;67;1244;-71
2021/11/19 12:51:31;;;;;;;;;;;;;;;;;;2199505;67;1971;-71
2021/11/19 12:54:09;;;;;;;;;;;;;;;;;;2197718;67;1220;-71
2021/11/19 12:56:57;;;;;;;;;;;;;;;;;;2199587;59;1180;-71
2021/11/19 12:59:43;;;;;;;;;;;;;;;;;;2198659;67;1200;-71
2021/11/19 13:02:20;;;;;;;;;;;;;;;;;;2198249;67;1200;-71
2021/11/19 13:05:02;;;;;;;;;;;;;;;;;;2198962;67;1242;-71
2021/11/19 13:07:43;;;;;;;;;;;;;;;;;;2199224;67;1231;-71
2021/11/19 13:10:40;;;;;;;;;;;;;;;;;;2198400;67;1940;-71
2021/11/19 13:13:31;;;;;;;;;;;;;;;;;;2206902;66;1482;-71
2021/11/19 13:16:22;;;;;;;;;;;;;;;;;;2206369;59;1248;-71
2021/11/19 13:18:58;;;;;;;;;;;;;;;;;;2198998;67;1264;-71
2021/11/19 13:21:43;;;;;;;;;;;;;;;;;;2203279;67;2114;-71
2021/11/19 13:24:49;;;;;;;;;;;;;;;;;;2198502;59;1677;-71
2021/11/19 13:27:53;;;;;;;;;;;;;;;;;;2189492;59;1189;-71
2021/11/19 13:30:46;;;;;;;;;;;;;;;;;;2189611;67;1928;-71
2021/11/19 13:33:26;;;;;;;;;;;;;;;;;;2198781;60;1223;-71
2021/11/19 13:36:07;;;;;;;;;;;;;;;;;;2199508;59;1268;-71
2021/11/19 13:39:15;;;;;;;;;;;;;;;;;;2199821;59;1145;-71
2021/11/19 13:42:03;;;;;;;;;;;;;;;;;;2199970;67;1294;-71
2021/11/19 13:44:49;;;;;;;;;;;;;;;;;;2199057;67;1532;-72
2021/11/19 13:47:27;;;;;;;;;;;;;;;;;;2198440;67;1216;-71
2021/11/19 13:50:07;;;;;;;;;;;;;;;;;;2198977;67;1169;-71
2021/11/19 13:52:46;;;;;;;;;;;;;;;;;;2199713;67;1278;-71
2021/11/19 13:55:22;;;;;;;;;;;;;;;;;;2197517;59;1236;-71
2021/11/19 13:57:56;;;;;;;;;;;;;;;;;;2199485;67;1251;-71
2021/11/19 14:00:32;;;;;;;;;;;;;;;;;;2198999;67;1243;-71
2021/11/19 14:03:05;;;;;;;;;;;;;;;;;;2199390;59;1178;-71
2021/11/19 14:05:42;;;;;;;;;;;;;;;;;;2198890;67;1456;-71
2021/11/19 14:08:21;;;;;;;;;;;;;;;;;;2199429;59;1182;-71
2021/11/19 14:10:57;;;;;;;;;;;;;;;;;;2199033;67;1938;-72
2021/11/19 14:13:32;;;;;;;;;;;;;;;;;;2206930;66;1264;-71
2021/11/19 14:16:07;;;;;;;;;;;;;;;;;;2197992;59;1254;-71
2021/11/19 14:18:50;;;;;;;;;;;;;;;;;;2199403;59;1267;-71
2021/11/19 14:24:22;;;;;;;;;;;;;;;;;;2198599;59;1538;-71
2021/11/19 14:27:04;;;;;;;;;;;;;;;;;;2212861;53;3650;-73
2021/11/19 14:29:40;;;;;;;;;;;;;;;;;;2219433;58;1210;-71
2021/11/19 14:32:15;;;;;;;;;;;;;;;;;;2220969;66;1928;-71
2021/11/19 14:34:49;;;;;;;;;;;;;;;;;;2221261;58;1289;-71
2021/11/19 14:37:24;;;;;;;;;;;;;;;;;;2221049;66;1303;-71
2021/11/19 14:40:04;;;;;;;;;;;;;;;;;;2221125;66;1263;-71
2021/11/19 14:42:41;;;;;;;;;;;;;;;;;;2220731;58;1248;-71
2021/11/19 14:45:17;;;;;;;;;;;;;;;;;;2220262;59;1269;-71
2021/11/19 14:47:53;;;;;;;;;;;;;;;;;;2221258;59;1157;-71
2021/11/19 14:53:18;;;;;;;;;;;;;;;;;;2220031;59;1421;-71
2021/11/19 14:56:03;;;;;;;;;;;;;;;;;;2220903;66;1262;-71
2021/11/19 14:58:39;;;;;;;;;;;;;;;;;;2220469;59;1212;-71
2021/11/19 15:01:15;;;;;;;;;;;;;;;;;;2220516;58;1191;-71
2021/11/19 15:03:51;;;;;;;;;;;;;;;;;;2220347;66;1189;-71
2021/11/19 15:06:26;;;;;;;;;;;;;;;;;;2219889;59;1288;-71
2021/11/19 15:09:14;;;;;;;;;;;;;;;;;;2221175;59;1283;-71
2021/11/19 15:11:58;;;;;;;;;;;;;;;;;;2220810;66;1987;-71
2021/11/19 15:14:37;;;;;;;;;;;;;;;;;;2219800;66;1147;-72
2021/11/19 15:17:24;;;;;;;;;;;;;;;;;;2220285;66;1269;-71
2021/11/19 15:19:59;;;;;;;;;;;;;;;;;;2219243;66;1193;-71
2021/11/19 15:22:35;;;;;;;;;;;;;;;;;;2220326;66;1454;-71
2021/11/19 15:25:12;;;;;;;;;;;;;;;;;;2219370;66;1240;-71
2021/11/19 15:27:53;;;;;;;;;;;;;;;;;;2220229;58;1188;-71
2021/11/19 15:30:35;;;;;;;;;;;;;;;;;;2220335;66;1146;-71
2021/11/19 15:33:26;;;;;;;;;;;;;;;;;;2221058;59;1175;-71
2021/11/19 15:36:06;;;;;;;;;;;;;;;;;;2220658;66;1264;-71
2021/11/19 15:38:42;;;;;;;;;;;;;;;;;;2220397;66;1291;-71
2021/11/19 15:41:17;;;;;;;;;;;;;;;;;;2218663;59;1044;-71
2021/11/19 15:43:54;;;;;;;;;;;;;;;;;;2220172;66;1243;-71
2021/11/19 15:46:29;;;;;;;;;;;;;;;;;;2218997;66;1208;-71
2021/11/19 15:49:04;;;;;;;;;;;;;;;;;;2218961;66;1105;-71
2021/11/19 15:51:39;;;;;;;;;;;;;;;;;;2219894;66;1925;-71
2021/11/19 15:54:16;;;;;;;;;;;;;;;;;;2221136;66;1224;-71
2021/11/19 15:56:55;;;;;;;;;;;;;;;;;;2219723;66;1170;-71
2021/11/19 15:59:37;;;;;;;;;;;;;;;;;;2218807;59;1322;-71
2021/11/19 16:02:16;;;;;;;;;;;;;;;;;;2220162;66;1176;-71
2021/11/19 16:05:16;;;;;;;;;;;;;;;;;;2220412;66;1179;-72
2021/11/19 16:07:54;;;;;;;;;;;;;;;;;;2220167;66;1185;-71
2021/11/19 16:10:40;;;;;;;;;;;;;;;;;;2220554;59;1236;-71
2021/11/19 16:13:17;;;;;;;;;;;;;;;;;;2219765;66;1982;-71
2021/11/19 16:15:55;;;;;;;;;;;;;;;;;;2219776;66;1221;-71
2021/11/19 16:18:29;;;;;;;;;;;;;;;;;;2220251;59;1308;-71
2021/11/19 16:21:04;;;;;;;;;;;;;;;;;;2219267;66;1287;-72
2021/11/19 16:23:37;;;;;;;;;;;;;;;;;;2219154;66;1307;-71
2021/11/19 16:26:12;;;;;;;;;;;;;;;;;;2220234;58;1338;-71
2021/11/19 16:28:45;;;;;;;;;;;;;;;;;;2220298;66;1218;-71
2021/11/19 16:31:23;;;;;;;;;;;;;;;;;;2220298;66;1931;-71
2021/11/19 16:33:56;;;;;;;;;;;;;;;;;;2219999;66;1247;-72
2021/11/19 16:36:29;;;;;;;;;;;;;;;;;;2219202;66;1287;-71
2021/11/19 16:39:04;;;;;;;;;;;;;;;;;;2219447;66;1197;-71
2021/11/19 16:41:37;;;;;;;;;;;;;;;;;;2219024;66;1090;-71
2021/11/19 16:44:11;;;;;;;;;;;;;;;;;;2220345;59;1382;-72
2021/11/19 16:46:47;;;;;;;;;;;;;;;;;;2220441;59;1308;-71
2021/11/19 16:49:22;;;;;;;;;;;;;;;;;;2220660;66;1243;-71
2021/11/19 16:51:57;;;;;;;;;;;;;;;;;;2219401;66;1925;-71
2021/11/19 16:54:30;;;;;;;;;;;;;;;;;;2219722;59;1135;-71
2021/11/19 16:57:05;;;;;;;;;;;;;;;;;;2220097;66;1311;-71
2021/11/19 16:59:38;;;;;;;;;;;;;;;;;;2220060;66;1251;-71
2021/11/19 17:02:15;;;;;;;;;;;;;;;;;;2219992;66;1181;-71
2021/11/19 17:04:48;;;;;;;;;;;;;;;;;;2220067;66;1187;-71
2021/11/19 17:07:22;;;;;;;;;;;;;;;;;;2220072;66;1297;-71
2021/11/19 17:09:55;;;;;;;;;;;;;;;;;;2220099;66;1180;-71
2021/11/19 17:12:28;;;;;;;;;;;;;;;;;;2220481;66;1915;-71
2021/11/19 17:15:01;;;;;;;;;;;;;;;;;;2219677;66;1171;-71
2021/11/19 17:17:39;;;;;;;;;;;;;;;;;;2218879;66;1222;-71
2021/11/19 17:20:13;;;;;;;;;;;;;;;;;;2219855;66;1239;-71
2021/11/19 17:22:47;;;;;;;;;;;;;;;;;;2220353;58;1340;-71
2021/11/19 17:25:21;;;;;;;;;;;;;;;;;;2219613;66;1202;-71
2021/11/19 17:27:57;;;;;;;;;;;;;;;;;;2220420;58;1361;-71
2021/11/19 17:30:31;;;;;;;;;;;;;;;;;;2218144;58;1698;-71
2021/11/19 17:33:08;;;;;;;;;;;;;;;;;;2218843;58;1941;-71
2021/11/19 17:35:41;;;;;;;;;;;;;;;;;;2218534;58;1483;-71
2021/11/19 17:38:14;;;;;;;;;;;;;;;;;;2219244;58;2428;-72
2021/11/19 17:40:48;;;;;;;;;;;;;;;;;;2219419;58;1293;-72
2021/11/19 17:43:22;;;;;;;;;;;;;;;;;;2221261;58;1785;-72
2021/11/19 17:45:58;;;;;;;;;;;;;;;;;;2221696;58;1981;-71
2021/11/19 17:48:36;;;;;;;;;;;;;;;;;;2219662;66;1175;-71
2021/11/19 17:51:12;;;;;;;;;;;;;;;;;;2221214;58;2159;-72
2021/11/19 17:53:48;;;;;;;;;;;;;;;;;;2218109;58;1933;-71
2021/11/19 17:56:24;;;;;;;;;;;;;;;;;;2219894;58;1330;-71
2021/11/19 17:58:57;;;;;;;;;;;;;;;;;;2219989;58;2210;-71
2021/11/19 18:01:31;;;;;;;;;;;;;;;;;;2220532;58;1737;-71
2021/11/19 18:04:07;;;;;;;;;;;;;;;;;;2219800;58;2453;-71
2021/11/19 18:06:41;;;;;;;;;;;;;;;;;;2219467;58;2166;-71
2021/11/19 18:09:15;;;;;;;;;;;;;;;;;;2218583;58;2202;-72
2021/11/19 18:11:51;;;;;;;;;;;;;;;;;;2221941;58;1982;-71
2021/11/19 18:14:25;;;;;;;;;;;;;;;;;;2220706;58;1616;-71
2021/11/19 18:17:01;;;;;;;;;;;;;;;;;;2221295;66;1186;-71
2021/11/19 18:19:38;;;;;;;;;;;;;;;;;;2221462;66;1194;-72
2021/11/19 18:22:13;;;;;;;;;;;;;;;;;;2217486;66;2003;-72
2021/11/19 18:24:49;;;;;;;;;;;;;;;;;;2220914;58;1674;-71
2021/11/19 18:27:23;;;;;;;;;;;;;;;;;;2221350;58;1765;-71
2021/11/19 18:29:56;;;;;;;;;;;;;;;;;;2221570;66;1096;-71
2021/11/19 18:32:31;;;;;;;;;;;;;;;;;;2219813;66;1947;-71